createdAt,value
2022-10-17T00:09:37.798Z,114801.53
2022-10-17T00:14:42.606Z,114300.88
2022-10-17T00:19:46.055Z,114505.31
2022-10-17T00:24:49.505Z,114459.41
2022-10-17T00:29:54.360Z,115099.84
2022-10-17T00:34:58.749Z,114657.59
2022-10-17T00:40:02.284Z,114651.31
2022-10-17T00:45:22.300Z,115001.81
2022-10-17T00:50:28.351Z,115101.94
2022-10-17T00:55:36.693Z,115421.16
2022-10-17T01:00:42.580Z,115713.28
2022-10-17T01:05:47.331Z,115873.94
2022-10-17T01:10:58.870Z,116391.47
2022-10-17T01:16:12.853Z,116458.25
2022-10-17T01:21:45.976Z,116808.88
2022-10-17T01:27:07.436Z,116756.69
2022-10-17T01:32:17.560Z,117322.34
2022-10-17T01:37:27.332Z,117086.47
2022-10-17T01:42:37.480Z,116737.91
2022-10-17T01:47:43.712Z,117046.81
2022-10-17T01:52:52.265Z,117149.09
2022-10-17T01:58:02.152Z,117405.84
2022-10-17T02:03:10.565Z,117410.03
2022-10-17T02:08:14.830Z,117414.19
2022-10-17T02:13:29.518Z,117506.06
2022-10-17T02:19:03.375Z,117890.19
2022-10-17T02:24:17.103Z,117956.97
2022-10-17T02:29:23.651Z,118391.25
2022-10-17T02:34:33.240Z,118230.47
2022-10-17T02:39:39.859Z,118063.47
2022-10-17T02:44:45.827Z,118192.91
2022-10-17T02:49:56.978Z,119088.69
2022-10-17T02:55:04.384Z,119236.97
2022-10-17T03:00:11.990Z,119316.31
2022-10-17T03:05:20.453Z,119316.31
2022-10-17T03:10:24.484Z,119316.31
2022-10-17T03:15:28.100Z,119316.31
2022-10-17T03:20:33.109Z,119316.31
2022-10-17T03:25:36.687Z,119316.31
2022-10-17T03:30:40.216Z,119316.31
2022-10-17T03:35:45.364Z,119316.31
2022-10-17T03:40:56.191Z,119316.31
2022-10-17T03:46:02.711Z,119316.31
2022-10-17T03:51:10.397Z,119316.31
2022-10-17T03:56:36.668Z,119316.31
2022-10-17T04:01:43.819Z,119316.31
2022-10-17T04:06:50.250Z,119316.31
2022-10-17T04:11:53.737Z,119316.31
2022-10-17T04:16:58.715Z,119316.31
2022-10-17T04:22:05.302Z,119316.31
2022-10-17T04:27:12.918Z,119316.31
2022-10-17T04:32:20.372Z,119316.31
2022-10-17T04:37:33.729Z,119316.31
2022-10-17T04:42:42.878Z,119316.31
2022-10-17T04:47:48.771Z,119316.31
2022-10-17T04:52:53.658Z,119316.31
2022-10-17T04:57:57.205Z,119316.31
2022-10-17T05:03:01.097Z,119316.31
2022-10-17T05:08:07.590Z,119316.31
2022-10-17T05:13:12.100Z,119316.31
2022-10-17T05:18:17.090Z,119316.31
2022-10-17T05:23:22.929Z,119316.31
2022-10-17T05:28:28.470Z,119316.31
2022-10-17T05:33:36.564Z,119316.31
2022-10-17T05:38:41.561Z,119316.31
2022-10-17T05:43:46.925Z,119316.31
2022-10-17T05:48:55.635Z,119316.31
2022-10-17T05:54:00.591Z,119316.31
2022-10-17T05:59:06.537Z,119316.31
2022-10-17T06:04:34.187Z,119316.31
2022-10-17T06:09:40.633Z,119316.31
2022-10-17T06:14:44.964Z,119316.31
2022-10-17T06:19:51.973Z,119316.31
2022-10-17T06:24:56.864Z,119316.31
2022-10-17T06:30:02.730Z,119316.31
2022-10-17T06:35:08.351Z,119316.31
2022-10-17T06:40:16.934Z,119316.31
2022-10-17T06:45:21.292Z,119316.31
2022-10-17T06:50:42.268Z,119316.31
2022-10-17T06:55:55.565Z,119316.31
2022-10-17T07:01:22.653Z,119316.31
2022-10-17T07:06:30.979Z,119316.31
2022-10-17T07:11:40.406Z,119316.31
2022-10-17T07:16:44.374Z,119316.31
2022-10-17T07:21:54.732Z,119316.31
2022-10-17T07:27:00.494Z,119316.31
2022-10-17T07:32:08.689Z,119316.31
2022-10-17T07:37:14.480Z,119316.31
2022-10-17T07:42:25.882Z,119316.31
2022-10-17T07:47:32.124Z,119316.31
2022-10-17T07:52:36.885Z,119316.31
2022-10-17T07:57:42.043Z,119316.31
2022-10-17T08:02:45.671Z,119316.31
2022-10-17T08:07:49.264Z,119316.31
2022-10-17T08:12:54.198Z,119316.31
2022-10-17T08:17:57.844Z,119316.31
2022-10-17T08:23:01.531Z,119316.31
2022-10-17T08:33:11.699Z,119316.31
2022-10-17T08:38:16.853Z,119316.31
2022-10-17T08:43:49.809Z,119316.31
2022-10-17T08:48:53.811Z,119316.31
2022-10-17T08:54:03.098Z,119316.31
2022-10-17T08:59:13.671Z,119316.31
2022-10-17T09:04:42.707Z,119316.31
2022-10-17T09:09:56.550Z,119316.31
2022-10-17T09:15:44.342Z,119316.31
2022-10-17T09:20:53.165Z,119316.31
2022-10-17T09:26:00.199Z,119316.31
2022-10-17T09:31:08.152Z,119316.31
2022-10-17T09:36:15.913Z,119316.31
2022-10-17T09:47:14.387Z,119316.31
2022-10-17T09:52:21.168Z,119316.31
2022-10-17T09:57:25.518Z,119316.31
2022-10-17T10:02:33.472Z,119316.31
2022-10-17T10:07:39.693Z,119316.31
2022-10-17T10:13:04.793Z,119316.31
2022-10-17T10:18:32.223Z,119316.31
2022-10-17T10:23:40.480Z,119316.31
2022-10-17T10:28:53.994Z,119316.31
2022-10-17T10:34:01.999Z,119316.31
2022-10-17T10:39:06.065Z,119316.31
2022-10-17T10:44:17.963Z,119316.31
2022-10-17T10:49:40.891Z,119316.31
2022-10-17T10:54:59.039Z,119316.31
2022-10-17T11:00:12.539Z,119316.31
2022-10-17T11:05:22.136Z,119316.31
2022-10-17T11:10:34.162Z,119316.31
2022-10-17T11:15:44.205Z,119316.31
2022-10-17T11:20:54.268Z,119316.31
2022-10-17T11:26:02.914Z,119316.31
2022-10-17T11:31:10.319Z,119316.31
2022-10-17T11:36:17.474Z,119316.31
2022-10-17T11:41:25.570Z,119316.31
2022-10-17T11:46:30.528Z,119316.31
2022-10-17T11:52:03.111Z,119316.31
2022-10-17T11:57:28.232Z,119316.31
2022-10-17T12:02:42.468Z,119316.31
2022-10-17T12:07:53.036Z,119316.31
2022-10-17T12:12:56.873Z,119316.31
2022-10-17T12:18:03.042Z,119316.31
2022-10-17T12:23:29.091Z,119316.31
2022-10-17T12:28:34.133Z,119316.31
2022-10-17T12:33:49.168Z,119316.31
2022-10-17T12:39:32.662Z,119316.31
2022-10-17T12:44:38.125Z,119316.31
2022-10-17T12:49:46.553Z,119316.31
2022-10-17T12:55:15.352Z,119316.31
2022-10-17T13:00:24.585Z,119316.31
2022-10-17T13:05:31.084Z,119316.31
2022-10-17T13:10:43.172Z,119316.31
2022-10-17T13:15:48.980Z,119316.31
2022-10-17T13:21:01.526Z,119316.31
2022-10-17T13:26:16.183Z,119316.31
2022-10-17T13:31:31.900Z,119316.31
2022-10-17T13:36:36.656Z,119316.31
2022-10-17T13:41:42.699Z,119316.31
2022-10-17T13:46:47.085Z,119316.31
2022-10-17T13:51:53.337Z,119316.31
2022-10-17T13:56:58.594Z,119316.31
2022-10-17T14:02:02.909Z,119316.31
2022-10-17T14:07:07.690Z,119316.31
2022-10-17T14:12:14.202Z,119316.31
2022-10-17T14:17:24.338Z,119316.31
2022-10-17T14:22:29.875Z,119316.31
2022-10-17T14:27:38.397Z,119316.31
2022-10-17T14:32:44.675Z,119316.31
2022-10-17T14:37:50.796Z,119316.31
2022-10-17T14:42:57.916Z,119316.31
2022-10-17T14:48:05.461Z,119316.31
2022-10-17T14:53:22.555Z,119316.31
2022-10-17T14:58:29.826Z,119316.31
2022-10-17T15:03:33.537Z,119316.31
2022-10-17T15:08:37.254Z,119316.31
2022-10-17T15:13:45.591Z,119316.31
2022-10-17T15:18:50.264Z,119316.31
2022-10-17T15:23:53.953Z,119316.31
2022-10-17T15:28:58.924Z,119316.31
2022-10-17T15:34:02.654Z,119316.31
2022-10-17T15:39:06.178Z,119316.31
2022-10-17T15:44:12.037Z,119316.31
2022-10-17T15:49:17.502Z,119316.31
2022-10-17T15:54:21.193Z,119316.31
2022-10-17T15:59:33.210Z,119316.31
2022-10-17T16:04:36.936Z,119316.31
2022-10-17T16:09:40.580Z,119316.31
2022-10-17T16:14:45.525Z,119316.31
2022-10-17T16:19:49.027Z,119316.31
2022-10-17T16:24:58.408Z,119316.31
2022-10-17T16:30:03.407Z,119316.31
2022-10-17T16:35:08.163Z,119316.31
2022-10-17T16:40:12.847Z,119316.31
2022-10-17T16:45:21.104Z,119316.31
2022-10-17T16:50:24.709Z,119316.31
2022-10-17T16:55:28.407Z,119316.31
2022-10-17T17:00:33.410Z,119316.31
2022-10-17T17:05:37.008Z,119316.31
2022-10-17T17:10:45.761Z,119316.31
2022-10-17T17:15:53.803Z,119316.31
2022-10-17T17:20:59.708Z,119316.31
2022-10-17T17:26:05.468Z,119316.31
2022-10-17T17:31:12.528Z,119316.31
2022-10-17T17:36:19.268Z,119316.31
2022-10-17T17:41:23.419Z,119316.31
2022-10-17T17:46:28.397Z,119316.31
2022-10-17T17:51:34.664Z,119316.31
2022-10-17T17:56:38.415Z,119316.31
2022-10-17T18:01:44.815Z,119316.31
2022-10-17T18:06:48.636Z,119316.31
2022-10-17T18:11:52.461Z,119316.31
2022-10-17T18:16:57.576Z,119316.31
2022-10-17T18:22:01.341Z,119316.31
2022-10-17T18:27:05.014Z,119316.31
2022-10-17T18:32:10.105Z,119316.31
2022-10-17T18:37:13.676Z,119316.31
2022-10-17T18:42:17.248Z,119316.31
2022-10-17T18:47:22.134Z,119316.31
2022-10-17T18:52:25.675Z,119316.31
2022-10-17T18:57:29.505Z,119316.31
2022-10-17T19:02:37.254Z,119316.31
2022-10-17T19:07:41.738Z,119316.31
2022-10-17T19:12:45.266Z,119316.31
2022-10-17T19:17:50.256Z,119316.31
2022-10-17T19:22:54.182Z,119316.31
2022-10-17T19:27:58.208Z,119316.31
2022-10-17T19:33:03.123Z,119316.31
2022-10-17T19:38:06.604Z,119316.31
2022-10-17T19:43:10.397Z,119316.31
2022-10-17T19:48:15.632Z,119316.31
2022-10-17T19:53:19.165Z,119316.31
2022-10-17T19:58:22.760Z,119316.31
2022-10-17T20:03:30.178Z,119316.31
2022-10-17T20:08:34.016Z,119316.31
2022-10-17T20:13:38.353Z,119316.31
2022-10-17T20:18:44.072Z,119316.31
2022-10-17T20:23:48.112Z,119316.31
2022-10-17T20:28:51.776Z,119316.31
2022-10-17T20:33:57.814Z,119316.31
2022-10-17T20:39:01.389Z,119316.31
2022-10-17T20:44:06.997Z,119316.31
2022-10-17T20:49:15.488Z,119316.31
2022-10-17T20:54:19.068Z,119316.31
2022-10-17T20:59:22.704Z,119316.31
2022-10-17T21:04:45.261Z,119316.31
2022-10-17T21:09:49.837Z,119316.31
2022-10-17T21:14:53.429Z,119316.31
2022-10-17T21:19:58.341Z,119316.31
2022-10-17T21:25:01.906Z,119316.31
2022-10-17T21:35:15.927Z,119316.31
2022-10-17T21:40:19.384Z,119316.31
2022-10-17T21:45:25.766Z,119316.31
2022-10-17T21:50:30.924Z,119316.31
2022-10-17T21:55:36.982Z,119316.31
2022-10-17T22:00:40.408Z,119316.31
2022-10-17T22:05:46.450Z,119316.31
2022-10-17T22:10:49.913Z,119316.31
2022-10-17T22:15:53.349Z,119316.31
2022-10-17T22:21:03.069Z,119316.31
2022-10-17T22:26:07.826Z,119316.31
2022-10-17T22:31:11.344Z,119316.31
2022-10-17T22:36:16.354Z,119316.31
2022-10-17T22:41:19.828Z,119316.31
2022-10-17T22:46:23.315Z,119316.31
2022-10-17T22:51:28.233Z,119316.31
2022-10-17T22:56:31.729Z,119316.31
2022-10-17T23:01:35.322Z,119316.31
2022-10-17T23:06:40.187Z,119316.31
2022-10-17T23:11:43.693Z,119316.31
2022-10-17T23:16:47.175Z,119316.31
2022-10-17T23:21:52.342Z,119316.31
2022-10-17T23:26:56.396Z,119316.31
2022-10-17T23:31:59.876Z,119316.31
2022-10-17T23:37:04.710Z,119316.31
2022-10-17T23:42:08.190Z,119316.31
2022-10-17T23:47:11.660Z,119316.31
2022-10-17T23:52:16.461Z,119316.31
2022-10-17T23:57:19.907Z,119316.31
